Terminal Aerodrome Forecast
Issued by NWS

Home | Current Version | Previous Version | Text Only | Print | Product List | Glossary On
Versions: 1 2 3 4 5 6 7 8 9 10 11 12 13
000
FTUS43 KJKL 111738
TAFSME
TAF
KSME 111738Z 1118/1218 21007KT P6SM FEW250
     FM120500 26009KT P6SM SCT250
     FM120700 28009KT P6SM BKN070
     FM120900 28009KT 5SM -SNDZ BR SCT015 OVC025
     FM121100 30010G20KT 5SM -SHSN BR SCT008 OVC015
     FM121400 30010G21KT P6SM SCT015 OVC025=

USA.gov is the U.S. government's official web portal to all federal, state and local government web resources and services.